Time;durP1;ratioP1;P1;durP2;ratioP2;P2;SDS_P1;SDS_P2;PMS_P1;PMS_P2;Temp;Humidity;BMP_temperature;BMP_pressure;BME280_temperature;BME280_humidity;BME280_pressure;Samples;Min_cycle;Max_cycle;Signal;HPM_P1;HPM_P2
2022/09/21 00:00:31;;;;;;;;;;;;;;;;;;5053679;28;19971;-66
2022/09/21 00:02:57;;;;;;;;;;;;;;;;;;5053602;28;19919;-67
2022/09/21 00:05:23;;;;;;;;;;;;;;;;;;5053250;28;19991;-67
2022/09/21 00:07:49;;;;;;;;;;;;;;;;;;5052856;28;20366;-67
2022/09/21 00:10:15;;;;;;;;;;;;;;;;;;5053378;28;19912;-67
2022/09/21 00:12:41;;;;;;;;;;;;;;;;;;5053404;28;20366;-67
2022/09/21 00:15:07;;;;;;;;;;;;;;;;;;5053544;28;20470;-67
2022/09/21 00:17:33;;;;;;;;;;;;;;;;;;5053672;28;20680;-67
2022/09/21 00:20:01;;;;;;;;;;;;;;;;;;5053241;28;19916;-67
2022/09/21 00:22:28;;;;;;;;;;;;;;;;;;5053010;28;19911;-67
2022/09/21 00:24:54;;;;;;;;;;;;;;;;;;5053013;28;19905;-65
2022/09/21 00:27:20;;;;;;;;;;;;;;;;;;5053369;28;19955;-67
2022/09/21 00:29:47;;;;;;;;;;;;;;;;;;5053045;28;19905;-67
2022/09/21 00:32:14;;;;;;;;;;;;;;;;;;5053385;28;19908;-67
2022/09/21 00:34:40;;;;;;;;;;;;;;;;;;5053154;28;19908;-67
2022/09/21 00:37:08;;;;;;;;;;;;;;;;;;5052078;28;19904;-67
2022/09/21 00:39:34;;;;;;;;;;;;;;;;;;5046370;28;19912;-68
2022/09/21 00:41:59;;;;;;;;;;;;;;;;;;5053310;28;20281;-66
2022/09/21 00:44:25;;;;;;;;;;;;;;;;;;5052599;28;19908;-64
2022/09/21 00:46:51;;;;;;;;;;;;;;;;;;5052958;28;20358;-66
2022/09/21 00:49:17;;;;;;;;;;;;;;;;;;5052124;28;19912;-65
2022/09/21 00:51:43;;;;;;;;;;;;;;;;;;5052130;28;19904;-65
2022/09/21 00:54:11;;;;;;;;;;;;;;;;;;5053071;28;19911;-66
2022/09/21 00:56:37;;;;;;;;;;;;;;;;;;5052156;28;19967;-67
2022/09/21 00:59:03;;;;;;;;;;;;;;;;;;5052468;28;19952;-67
2022/09/21 01:01:29;;;;;;;;;;;;;;;;;;5051636;28;19904;-67
2022/09/21 01:03:56;;;;;;;;;;;;;;;;;;5052096;28;19911;-67
2022/09/21 01:06:22;;;;;;;;;;;;;;;;;;5052263;28;19915;-66
2022/09/21 01:08:48;;;;;;;;;;;;;;;;;;5052560;28;19909;-66
2022/09/21 01:11:14;;;;;;;;;;;;;;;;;;5052281;28;19909;-65
2022/09/21 01:13:40;;;;;;;;;;;;;;;;;;5052098;28;19951;-66
2022/09/21 01:16:06;;;;;;;;;;;;;;;;;;5051829;28;19915;-66
2022/09/21 01:18:32;;;;;;;;;;;;;;;;;;5052136;28;19967;-66
2022/09/21 01:20:58;;;;;;;;;;;;;;;;;;5051836;28;19936;-67
2022/09/21 01:23:24;;;;;;;;;;;;;;;;;;5052461;28;19916;-67
2022/09/21 01:25:51;;;;;;;;;;;;;;;;;;5052241;28;19905;-66
2022/09/21 01:28:16;;;;;;;;;;;;;;;;;;5051642;28;20255;-67
2022/09/21 01:30:42;;;;;;;;;;;;;;;;;;5052101;28;19923;-67
2022/09/21 01:33:08;;;;;;;;;;;;;;;;;;5051727;28;19905;-67
2022/09/21 01:35:34;;;;;;;;;;;;;;;;;;5051697;28;20003;-67
2022/09/21 01:38:00;;;;;;;;;;;;;;;;;;5051406;28;19913;-68
2022/09/21 01:40:26;;;;;;;;;;;;;;;;;;5052123;28;19905;-67
2022/09/21 01:42:52;;;;;;;;;;;;;;;;;;5051814;28;19905;-68
2022/09/21 01:45:18;;;;;;;;;;;;;;;;;;5051721;28;20441;-66
2022/09/21 01:47:44;;;;;;;;;;;;;;;;;;5051397;28;19908;-68
2022/09/21 01:50:10;;;;;;;;;;;;;;;;;;5044483;28;20392;-68
2022/09/21 01:52:36;;;;;;;;;;;;;;;;;;5051507;28;19904;-68
2022/09/21 01:55:02;;;;;;;;;;;;;;;;;;5051182;28;20393;-66
2022/09/21 01:57:27;;;;;;;;;;;;;;;;;;5051310;28;19916;-67
2022/09/21 01:59:53;;;;;;;;;;;;;;;;;;5051567;28;19909;-68
2022/09/21 02:02:19;;;;;;;;;;;;;;;;;;5051240;28;20320;-67
2022/09/21 02:04:45;;;;;;;;;;;;;;;;;;5049858;28;19911;-67
2022/09/21 02:07:11;;;;;;;;;;;;;;;;;;5051334;28;19909;-68
2022/09/21 02:09:37;;;;;;;;;;;;;;;;;;5051334;28;19959;-66
2022/09/21 02:12:03;;;;;;;;;;;;;;;;;;5051083;28;19905;-68
2022/09/21 02:14:31;;;;;;;;;;;;;;;;;;5050924;28;20053;-66
2022/09/21 02:16:56;;;;;;;;;;;;;;;;;;5050836;28;19927;-67
2022/09/21 02:19:22;;;;;;;;;;;;;;;;;;5050684;28;20377;-68
2022/09/21 02:21:48;;;;;;;;;;;;;;;;;;5050858;28;20377;-66
2022/09/21 02:24:14;;;;;;;;;;;;;;;;;;5051211;28;19908;-66
2022/09/21 02:26:40;;;;;;;;;;;;;;;;;;5050947;28;19912;-67
2022/09/21 02:29:06;;;;;;;;;;;;;;;;;;5050938;28;19999;-67
2022/09/21 02:31:32;;;;;;;;;;;;;;;;;;5050939;28;20300;-67
2022/09/21 02:33:58;;;;;;;;;;;;;;;;;;5050537;28;19919;-68
2022/09/21 02:36:27;;;;;;;;;;;;;;;;;;5050554;28;19955;-66
2022/09/21 02:38:53;;;;;;;;;;;;;;;;;;5050650;28;19924;-68
2022/09/21 02:41:19;;;;;;;;;;;;;;;;;;5050732;28;19909;-66
2022/09/21 02:43:45;;;;;;;;;;;;;;;;;;5050467;28;19904;-67
2022/09/21 02:46:11;;;;;;;;;;;;;;;;;;5050865;28;19904;-68
2022/09/21 02:48:37;;;;;;;;;;;;;;;;;;5050604;28;20039;-67
2022/09/21 02:51:03;;;;;;;;;;;;;;;;;;5051252;28;19912;-67
2022/09/21 02:53:29;;;;;;;;;;;;;;;;;;5051069;28;20261;-68
2022/09/21 02:55:54;;;;;;;;;;;;;;;;;;5050373;28;19983;-66
2022/09/21 02:58:20;;;;;;;;;;;;;;;;;;5044029;28;20427;-67
2022/09/21 03:00:46;;;;;;;;;;;;;;;;;;5050824;28;19909;-66
2022/09/21 03:03:13;;;;;;;;;;;;;;;;;;5049657;28;20488;-67
2022/09/21 03:05:39;;;;;;;;;;;;;;;;;;5050950;28;20294;-67
2022/09/21 03:08:05;;;;;;;;;;;;;;;;;;5050575;28;20388;-67
2022/09/21 03:10:31;;;;;;;;;;;;;;;;;;5050701;28;19904;-67
2022/09/21 03:12:58;;;;;;;;;;;;;;;;;;5050236;28;20266;-67
2022/09/21 03:15:24;;;;;;;;;;;;;;;;;;5050263;28;19905;-65
2022/09/21 03:17:50;;;;;;;;;;;;;;;;;;5049732;28;19960;-67
2022/09/21 03:20:16;;;;;;;;;;;;;;;;;;5050970;28;20415;-67
2022/09/21 03:22:42;;;;;;;;;;;;;;;;;;5050552;28;19905;-68
2022/09/21 03:25:11;;;;;;;;;;;;;;;;;;5051326;28;19908;-67
2022/09/21 03:27:37;;;;;;;;;;;;;;;;;;5053943;28;19928;-67
2022/09/21 03:30:02;;;;;;;;;;;;;;;;;;5054641;28;20290;-68
2022/09/21 03:32:28;;;;;;;;;;;;;;;;;;5053693;28;19947;-67
2022/09/21 03:34:54;;;;;;;;;;;;;;;;;;5054309;28;20020;-66
2022/09/21 03:37:20;;;;;;;;;;;;;;;;;;5054298;28;19912;-67
2022/09/21 03:39:46;;;;;;;;;;;;;;;;;;5053577;28;19995;-67
2022/09/21 03:42:12;;;;;;;;;;;;;;;;;;5053440;28;19904;-66
2022/09/21 03:44:39;;;;;;;;;;;;;;;;;;5054253;28;19983;-66
2022/09/21 03:47:05;;;;;;;;;;;;;;;;;;5053162;28;19936;-66
2022/09/21 03:49:31;;;;;;;;;;;;;;;;;;5053965;28;19940;-67
2022/09/21 03:51:58;;;;;;;;;;;;;;;;;;5053900;28;19913;-67
2022/09/21 03:54:24;;;;;;;;;;;;;;;;;;5053827;28;19905;-66
2022/09/21 03:56:50;;;;;;;;;;;;;;;;;;5053335;28;19967;-66
2022/09/21 03:59:16;;;;;;;;;;;;;;;;;;5053390;28;19913;-68
2022/09/21 04:01:42;;;;;;;;;;;;;;;;;;5053430;28;19915;-66
2022/09/21 04:04:09;;;;;;;;;;;;;;;;;;5053583;28;19905;-67
2022/09/21 04:06:34;;;;;;;;;;;;;;;;;;5053493;28;19947;-66
2022/09/21 04:09:02;;;;;;;;;;;;;;;;;;5053977;28;19940;-67
2022/09/21 04:11:28;;;;;;;;;;;;;;;;;;5047045;28;20430;-67
2022/09/21 04:13:57;;;;;;;;;;;;;;;;;;5046624;28;20297;-64
2022/09/21 04:16:24;;;;;;;;;;;;;;;;;;5053611;28;20469;-65
2022/09/21 04:18:50;;;;;;;;;;;;;;;;;;5046755;28;20007;-66
2022/09/21 04:21:16;;;;;;;;;;;;;;;;;;5053148;28;20000;-67
2022/09/21 04:23:42;;;;;;;;;;;;;;;;;;5053001;28;19912;-66
2022/09/21 04:26:08;;;;;;;;;;;;;;;;;;5053263;28;19909;-66
2022/09/21 04:28:34;;;;;;;;;;;;;;;;;;5052659;28;19966;-65
2022/09/21 04:31:00;;;;;;;;;;;;;;;;;;5052895;28;20297;-65
2022/09/21 04:33:26;;;;;;;;;;;;;;;;;;5053521;28;19905;-66
2022/09/21 04:35:52;;;;;;;;;;;;;;;;;;5051309;28;19971;-66
2022/09/21 04:38:17;;;;;;;;;;;;;;;;;;5051477;28;19921;-67
2022/09/21 04:40:43;;;;;;;;;;;;;;;;;;5052120;28;19920;-66
2022/09/21 04:43:09;;;;;;;;;;;;;;;;;;5052557;28;19908;-65
2022/09/21 04:45:35;;;;;;;;;;;;;;;;;;5051253;28;19998;-66
2022/09/21 04:48:01;;;;;;;;;;;;;;;;;;5052726;28;19991;-66
2022/09/21 04:50:27;;;;;;;;;;;;;;;;;;5052653;28;19904;-66
2022/09/21 04:52:53;;;;;;;;;;;;;;;;;;5052486;28;19917;-65
2022/09/21 04:55:19;;;;;;;;;;;;;;;;;;5052406;28;19909;-66
2022/09/21 04:57:45;;;;;;;;;;;;;;;;;;5051841;28;19960;-66
2022/09/21 05:00:11;;;;;;;;;;;;;;;;;;5052704;28;20690;-66
2022/09/21 05:02:36;;;;;;;;;;;;;;;;;;5052868;28;19908;-66
2022/09/21 05:05:02;;;;;;;;;;;;;;;;;;5052431;28;19955;-66
2022/09/21 05:07:28;;;;;;;;;;;;;;;;;;5052472;28;19905;-66
2022/09/21 05:10:03;;;;;;;;;;;;;;;;;;5051555;28;20315;-67
2022/09/21 05:12:29;;;;;;;;;;;;;;;;;;5051764;28;20709;-67
2022/09/21 05:14:55;;;;;;;;;;;;;;;;;;5052243;28;20450;-67
2022/09/21 05:17:22;;;;;;;;;;;;;;;;;;5052302;28;19912;-66
2022/09/21 05:19:47;;;;;;;;;;;;;;;;;;5052242;28;19909;-66
2022/09/21 05:22:13;;;;;;;;;;;;;;;;;;5052073;28;19905;-66
2022/09/21 05:24:39;;;;;;;;;;;;;;;;;;5052120;28;20322;-66
2022/09/21 05:27:05;;;;;;;;;;;;;;;;;;5051847;28;19991;-67
2022/09/21 05:29:31;;;;;;;;;;;;;;;;;;5052093;28;19912;-65
2022/09/21 05:31:57;;;;;;;;;;;;;;;;;;5051950;28;19905;-66
2022/09/21 05:34:23;;;;;;;;;;;;;;;;;;5050730;28;20339;-65
2022/09/21 05:36:49;;;;;;;;;;;;;;;;;;5052018;28;20003;-67
2022/09/21 05:39:15;;;;;;;;;;;;;;;;;;5051709;28;19917;-65
2022/09/21 05:41:41;;;;;;;;;;;;;;;;;;5051432;28;19966;-65
2022/09/21 05:44:06;;;;;;;;;;;;;;;;;;5051645;28;19905;-67
2022/09/21 05:46:32;;;;;;;;;;;;;;;;;;5051545;28;20007;-66
2022/09/21 05:48:58;;;;;;;;;;;;;;;;;;5050999;28;19909;-66
2022/09/21 05:51:24;;;;;;;;;;;;;;;;;;5051692;28;19905;-66
2022/09/21 05:53:50;;;;;;;;;;;;;;;;;;5051363;28;20488;-66
2022/09/21 05:56:16;;;;;;;;;;;;;;;;;;5051597;28;19951;-65
2022/09/21 05:58:42;;;;;;;;;;;;;;;;;;5051395;28;19952;-67
2022/09/21 06:01:08;;;;;;;;;;;;;;;;;;5050945;28;19909;-66
2022/09/21 06:03:35;;;;;;;;;;;;;;;;;;5051453;28;19912;-65
2022/09/21 06:06:00;;;;;;;;;;;;;;;;;;5051672;28;19905;-59
2022/09/21 06:08:26;;;;;;;;;;;;;;;;;;5051231;28;20397;-61
2022/09/21 06:10:52;;;;;;;;;;;;;;;;;;5050461;28;19905;-61
2022/09/21 06:13:18;;;;;;;;;;;;;;;;;;5051385;28;19935;-61
2022/09/21 06:15:44;;;;;;;;;;;;;;;;;;5049843;28;19995;-62
2022/09/21 06:18:10;;;;;;;;;;;;;;;;;;5050343;28;20280;-61
2022/09/21 06:20:36;;;;;;;;;;;;;;;;;;5051035;28;20125;-61
2022/09/21 06:23:02;;;;;;;;;;;;;;;;;;5050977;28;20270;-61
2022/09/21 06:25:28;;;;;;;;;;;;;;;;;;5050274;28;20298;-60
2022/09/21 06:27:54;;;;;;;;;;;;;;;;;;5041647;28;20341;-62
2022/09/21 06:30:19;;;;;;;;;;;;;;;;;;5048743;28;20510;-61
2022/09/21 06:32:45;;;;;;;;;;;;;;;;;;5049869;28;20268;-61
2022/09/21 06:35:11;;;;;;;;;;;;;;;;;;5049697;28;20391;-61
2022/09/21 06:37:39;;;;;;;;;;;;;;;;;;5043636;28;20130;-60
2022/09/21 06:40:04;;;;;;;;;;;;;;;;;;5049546;28;20350;-62
2022/09/21 06:42:30;;;;;;;;;;;;;;;;;;5049819;28;20598;-60
2022/09/21 06:44:56;;;;;;;;;;;;;;;;;;5047137;28;20273;-61
2022/09/21 06:47:22;;;;;;;;;;;;;;;;;;5048955;28;20373;-60
2022/09/21 06:49:48;;;;;;;;;;;;;;;;;;5049160;28;20118;-60
2022/09/21 06:52:14;;;;;;;;;;;;;;;;;;5049913;28;19904;-61
2022/09/21 06:54:41;;;;;;;;;;;;;;;;;;5048848;28;20224;-69
2022/09/21 06:57:07;;;;;;;;;;;;;;;;;;5049177;28;20419;-70
2022/09/21 06:59:32;;;;;;;;;;;;;;;;;;5050576;28;20398;-69
2022/09/21 07:01:58;;;;;;;;;;;;;;;;;;5053632;28;20716;-68
2022/09/21 07:04:24;;;;;;;;;;;;;;;;;;5053552;28;19905;-69
2022/09/21 07:06:50;;;;;;;;;;;;;;;;;;5054072;28;19911;-65
2022/09/21 07:09:17;;;;;;;;;;;;;;;;;;5046404;28;19908;-67
2022/09/21 07:11:42;;;;;;;;;;;;;;;;;;5053515;28;19905;-70
2022/09/21 07:14:08;;;;;;;;;;;;;;;;;;5052018;28;20407;-68
2022/09/21 07:16:34;;;;;;;;;;;;;;;;;;5053441;28;19935;-70
2022/09/21 07:19:01;;;;;;;;;;;;;;;;;;5052603;28;19967;-69
2022/09/21 07:21:27;;;;;;;;;;;;;;;;;;5050590;28;20286;-70
2022/09/21 07:23:53;;;;;;;;;;;;;;;;;;5052086;28;19909;-68
2022/09/21 07:26:19;;;;;;;;;;;;;;;;;;5053338;28;19911;-68
2022/09/21 07:28:44;;;;;;;;;;;;;;;;;;5053118;28;19939;-69
2022/09/21 07:31:10;;;;;;;;;;;;;;;;;;5052571;28;20710;-70
2022/09/21 07:33:36;;;;;;;;;;;;;;;;;;5052885;28;20364;-69
2022/09/21 07:36:08;;;;;;;;;;;;;;;;;;5052952;28;20313;-68
2022/09/21 07:38:34;;;;;;;;;;;;;;;;;;5052315;28;20138;-69
2022/09/21 07:41:02;;;;;;;;;;;;;;;;;;5052889;28;19958;-70
2022/09/21 07:43:27;;;;;;;;;;;;;;;;;;5053163;28;20285;-69
2022/09/21 07:45:54;;;;;;;;;;;;;;;;;;5052312;28;20127;-70
2022/09/21 07:48:21;;;;;;;;;;;;;;;;;;5052477;28;20436;-69
2022/09/21 07:50:48;;;;;;;;;;;;;;;;;;5053784;28;20007;-71
2022/09/21 07:53:15;;;;;;;;;;;;;;;;;;5052485;28;20458;-70
2022/09/21 07:55:41;;;;;;;;;;;;;;;;;;5052866;28;19908;-69
2022/09/21 08:00:51;;;;;;;;;;;;;;;;;;5053862;28;20318;-69
2022/09/21 08:03:17;;;;;;;;;;;;;;;;;;5054019;28;20251;-70
2022/09/21 08:05:43;;;;;;;;;;;;;;;;;;5053749;28;20505;-70
2022/09/21 08:08:09;;;;;;;;;;;;;;;;;;5052782;28;20136;-70
2022/09/21 08:10:36;;;;;;;;;;;;;;;;;;5052887;28;19948;-69
2022/09/21 08:13:01;;;;;;;;;;;;;;;;;;5053754;28;19904;-69
2022/09/21 08:15:27;;;;;;;;;;;;;;;;;;5053326;28;19995;-70
2022/09/21 08:17:53;;;;;;;;;;;;;;;;;;5053429;28;19920;-70
2022/09/21 08:20:20;;;;;;;;;;;;;;;;;;5053622;28;19905;-69
2022/09/21 08:22:46;;;;;;;;;;;;;;;;;;5046504;28;20454;-68
2022/09/21 08:25:12;;;;;;;;;;;;;;;;;;5053164;28;19944;-69
2022/09/21 08:27:39;;;;;;;;;;;;;;;;;;5053035;28;20338;-69
2022/09/21 08:30:05;;;;;;;;;;;;;;;;;;5052782;28;20191;-70
2022/09/21 08:32:31;;;;;;;;;;;;;;;;;;5052973;28;20081;-69
2022/09/21 08:34:57;;;;;;;;;;;;;;;;;;5052811;28;19904;-70
2022/09/21 08:37:23;;;;;;;;;;;;;;;;;;5052961;28;19958;-69
2022/09/21 08:39:49;;;;;;;;;;;;;;;;;;5052913;28;19912;-70
2022/09/21 08:42:15;;;;;;;;;;;;;;;;;;5053217;28;20264;-69
2022/09/21 08:44:41;;;;;;;;;;;;;;;;;;5053279;28;20619;-69
2022/09/21 08:47:06;;;;;;;;;;;;;;;;;;5052597;28;20295;-70
2022/09/21 08:49:32;;;;;;;;;;;;;;;;;;5052366;28;20375;-69
2022/09/21 08:51:58;;;;;;;;;;;;;;;;;;5052827;28;20430;-69
2022/09/21 08:54:24;;;;;;;;;;;;;;;;;;5051319;28;19945;-68
2022/09/21 08:56:50;;;;;;;;;;;;;;;;;;5052467;28;20298;-69
2022/09/21 08:59:16;;;;;;;;;;;;;;;;;;5052504;28;19916;-69
2022/09/21 09:01:42;;;;;;;;;;;;;;;;;;5052486;28;19908;-68
2022/09/21 09:04:10;;;;;;;;;;;;;;;;;;5052431;28;19904;-70
2022/09/21 09:06:36;;;;;;;;;;;;;;;;;;5052516;28;19905;-69
2022/09/21 09:09:02;;;;;;;;;;;;;;;;;;5052764;28;19916;-69
2022/09/21 09:11:28;;;;;;;;;;;;;;;;;;5052249;28;19912;-70
2022/09/21 09:13:54;;;;;;;;;;;;;;;;;;5052295;28;19909;-69
2022/09/21 09:16:20;;;;;;;;;;;;;;;;;;5052757;28;19908;-70
2022/09/21 09:18:46;;;;;;;;;;;;;;;;;;5052180;28;19936;-69
2022/09/21 09:21:12;;;;;;;;;;;;;;;;;;5051712;28;19914;-70
2022/09/21 09:23:38;;;;;;;;;;;;;;;;;;5051578;28;19909;-69
2022/09/21 09:26:04;;;;;;;;;;;;;;;;;;5052554;28;19905;-69
2022/09/21 09:28:30;;;;;;;;;;;;;;;;;;5051936;28;19904;-69
2022/09/21 09:30:56;;;;;;;;;;;;;;;;;;5045735;28;19912;-69
2022/09/21 09:33:22;;;;;;;;;;;;;;;;;;5052022;28;19983;-69
2022/09/21 09:35:48;;;;;;;;;;;;;;;;;;5051737;28;20701;-69
2022/09/21 09:38:13;;;;;;;;;;;;;;;;;;5051588;28;20363;-69
2022/09/21 09:40:39;;;;;;;;;;;;;;;;;;5051708;28;20792;-70
2022/09/21 09:43:05;;;;;;;;;;;;;;;;;;5052198;28;20356;-69
2022/09/21 09:45:39;;;;;;;;;;;;;;;;;;5023391;28;20520;-67
2022/09/21 09:48:05;;;;;;;;;;;;;;;;;;5027226;28;20585;-68
2022/09/21 09:50:31;;;;;;;;;;;;;;;;;;5028393;28;19909;-68
2022/09/21 09:52:57;;;;;;;;;;;;;;;;;;5028595;28;19978;-68
2022/09/21 09:55:23;;;;;;;;;;;;;;;;;;5028149;28;20245;-68
2022/09/21 09:57:49;;;;;;;;;;;;;;;;;;5028031;28;20131;-68
2022/09/21 10:00:15;;;;;;;;;;;;;;;;;;5028264;28;19910;-70
2022/09/21 10:02:40;;;;;;;;;;;;;;;;;;5028015;28;19906;-69
2022/09/21 10:05:07;;;;;;;;;;;;;;;;;;5028466;28;20445;-68
2022/09/21 10:07:33;;;;;;;;;;;;;;;;;;5028270;28;20363;-68
2022/09/21 10:09:59;;;;;;;;;;;;;;;;;;5028047;28;19916;-67
2022/09/21 10:12:26;;;;;;;;;;;;;;;;;;5028044;28;19937;-68
2022/09/21 10:14:52;;;;;;;;;;;;;;;;;;5028158;28;19905;-68
2022/09/21 10:17:18;;;;;;;;;;;;;;;;;;5027692;28;20629;-68
2022/09/21 10:19:44;;;;;;;;;;;;;;;;;;5026427;28;20148;-68
2022/09/21 10:22:09;;;;;;;;;;;;;;;;;;5028025;28;20787;-68
2022/09/21 10:24:35;;;;;;;;;;;;;;;;;;5021031;28;20421;-68
2022/09/21 10:27:01;;;;;;;;;;;;;;;;;;5027748;28;20369;-68
2022/09/21 10:29:27;;;;;;;;;;;;;;;;;;5027947;28;20414;-68
2022/09/21 10:31:53;;;;;;;;;;;;;;;;;;5027215;28;20365;-68
2022/09/21 10:34:20;;;;;;;;;;;;;;;;;;5027720;28;20120;-68
2022/09/21 10:36:46;;;;;;;;;;;;;;;;;;5028445;28;20294;-68
2022/09/21 10:39:12;;;;;;;;;;;;;;;;;;5027290;28;20769;-67
2022/09/21 10:41:38;;;;;;;;;;;;;;;;;;5027437;28;20273;-68
2022/09/21 10:44:05;;;;;;;;;;;;;;;;;;5034595;28;20652;-69
2022/09/21 10:46:30;;;;;;;;;;;;;;;;;;5047165;28;19929;-70
2022/09/21 10:48:56;;;;;;;;;;;;;;;;;;5040858;28;19905;-68
2022/09/21 10:51:22;;;;;;;;;;;;;;;;;;5047246;28;19909;-68
2022/09/21 10:53:48;;;;;;;;;;;;;;;;;;5047307;28;20031;-68
2022/09/21 10:56:17;;;;;;;;;;;;;;;;;;5038167;28;19928;-68
2022/09/21 10:58:43;;;;;;;;;;;;;;;;;;5034722;28;20265;-68
2022/09/21 11:01:09;;;;;;;;;;;;;;;;;;5033454;28;20398;-68
2022/09/21 11:03:38;;;;;;;;;;;;;;;;;;5033599;28;20238;-68
2022/09/21 11:06:04;;;;;;;;;;;;;;;;;;5027168;28;20142;-68
2022/09/21 11:08:29;;;;;;;;;;;;;;;;;;5034102;28;20274;-69
2022/09/21 11:10:55;;;;;;;;;;;;;;;;;;5033555;28;20280;-68
2022/09/21 11:13:21;;;;;;;;;;;;;;;;;;5033436;28;20515;-67
2022/09/21 11:15:47;;;;;;;;;;;;;;;;;;5032767;28;20138;-68
2022/09/21 11:18:13;;;;;;;;;;;;;;;;;;5032783;28;20302;-69
2022/09/21 11:20:39;;;;;;;;;;;;;;;;;;5027170;28;19974;-68
2022/09/21 11:23:05;;;;;;;;;;;;;;;;;;5031477;28;19995;-69
2022/09/21 11:25:31;;;;;;;;;;;;;;;;;;5032913;28;19921;-68
2022/09/21 11:27:57;;;;;;;;;;;;;;;;;;5032249;28;20285;-69
2022/09/21 11:30:23;;;;;;;;;;;;;;;;;;5031662;28;20127;-69
2022/09/21 11:32:49;;;;;;;;;;;;;;;;;;5032350;28;19964;-67
2022/09/21 11:35:15;;;;;;;;;;;;;;;;;;5029793;28;20397;-69
2022/09/21 11:37:41;;;;;;;;;;;;;;;;;;5030544;28;20382;-68
2022/09/21 11:40:07;;;;;;;;;;;;;;;;;;5029804;28;20632;-68
2022/09/21 11:42:33;;;;;;;;;;;;;;;;;;5026636;28;20270;-67
2022/09/21 11:44:59;;;;;;;;;;;;;;;;;;5029563;28;20423;-68
2022/09/21 11:47:24;;;;;;;;;;;;;;;;;;5026120;28;20452;-68
2022/09/21 11:49:50;;;;;;;;;;;;;;;;;;5031197;28;20202;-68
2022/09/21 11:52:20;;;;;;;;;;;;;;;;;;5030424;28;20131;-69
2022/09/21 11:54:45;;;;;;;;;;;;;;;;;;5031271;28;20790;-69
2022/09/21 11:57:17;;;;;;;;;;;;;;;;;;5030860;28;20275;-67
2022/09/21 11:59:43;;;;;;;;;;;;;;;;;;5030583;28;20512;-66
2022/09/21 12:02:09;;;;;;;;;;;;;;;;;;5031360;28;20090;-67
2022/09/21 12:04:35;;;;;;;;;;;;;;;;;;5030580;28;19921;-68
2022/09/21 12:07:01;;;;;;;;;;;;;;;;;;5030199;28;19909;-68
2022/09/21 12:09:27;;;;;;;;;;;;;;;;;;5031369;28;19936;-69
2022/09/21 12:11:54;;;;;;;;;;;;;;;;;;5030237;28;20002;-70
2022/09/21 12:14:21;;;;;;;;;;;;;;;;;;5030002;28;19905;-68
2022/09/21 12:16:47;;;;;;;;;;;;;;;;;;5030582;28;19946;-69
2022/09/21 12:19:13;;;;;;;;;;;;;;;;;;5030804;28;19929;-69
2022/09/21 12:21:39;;;;;;;;;;;;;;;;;;5031384;28;20454;-68
2022/09/21 12:24:05;;;;;;;;;;;;;;;;;;5025295;28;20020;-69
2022/09/21 12:26:30;;;;;;;;;;;;;;;;;;5029533;28;19911;-68
2022/09/21 12:28:59;;;;;;;;;;;;;;;;;;5030226;28;19905;-70
2022/09/21 12:31:25;;;;;;;;;;;;;;;;;;5030727;28;20151;-68
2022/09/21 12:33:51;;;;;;;;;;;;;;;;;;5030031;28;20317;-69
2022/09/21 12:36:17;;;;;;;;;;;;;;;;;;5030515;28;20201;-70
2022/09/21 12:38:43;;;;;;;;;;;;;;;;;;5030252;28;19909;-69
2022/09/21 12:41:09;;;;;;;;;;;;;;;;;;5030330;28;20297;-69
2022/09/21 12:43:35;;;;;;;;;;;;;;;;;;5029901;28;19916;-71
2022/09/21 12:46:01;;;;;;;;;;;;;;;;;;5030532;28;20281;-68
2022/09/21 12:48:27;;;;;;;;;;;;;;;;;;5030063;28;20047;-70
2022/09/21 12:50:53;;;;;;;;;;;;;;;;;;5030400;28;20038;-68
2022/09/21 12:53:19;;;;;;;;;;;;;;;;;;5030451;28;20109;-69
2022/09/21 12:55:46;;;;;;;;;;;;;;;;;;5029562;28;20389;-68
2022/09/21 12:58:11;;;;;;;;;;;;;;;;;;5028739;28;19958;-68
2022/09/21 13:00:37;;;;;;;;;;;;;;;;;;5029063;28;20009;-69
2022/09/21 13:03:03;;;;;;;;;;;;;;;;;;5028244;28;20349;-71
2022/09/21 13:05:29;;;;;;;;;;;;;;;;;;5025154;28;20786;-70
2022/09/21 13:07:55;;;;;;;;;;;;;;;;;;5029996;28;20266;-69
2022/09/21 13:10:21;;;;;;;;;;;;;;;;;;5029457;28;20113;-69
2022/09/21 13:12:47;;;;;;;;;;;;;;;;;;5029994;28;19905;-69
2022/09/21 13:15:13;;;;;;;;;;;;;;;;;;5030100;28;20377;-67
2022/09/21 13:17:39;;;;;;;;;;;;;;;;;;5029214;28;20363;-67
2022/09/21 13:20:05;;;;;;;;;;;;;;;;;;5029445;28;20189;-69
2022/09/21 13:22:32;;;;;;;;;;;;;;;;;;5029696;28;20738;-68
2022/09/21 13:25:00;;;;;;;;;;;;;;;;;;5026299;28;20679;-68
2022/09/21 13:27:26;;;;;;;;;;;;;;;;;;5029859;28;19967;-70
2022/09/21 13:29:52;;;;;;;;;;;;;;;;;;5030229;28;19905;-69
2022/09/21 13:32:18;;;;;;;;;;;;;;;;;;5030447;28;19909;-69
2022/09/21 13:34:44;;;;;;;;;;;;;;;;;;5029982;28;20003;-68
2022/09/21 13:37:10;;;;;;;;;;;;;;;;;;5030292;28;19909;-70
2022/09/21 13:39:36;;;;;;;;;;;;;;;;;;5029899;28;19915;-69
2022/09/21 13:42:01;;;;;;;;;;;;;;;;;;5029708;28;20278;-70
2022/09/21 13:44:27;;;;;;;;;;;;;;;;;;5029594;28;20236;-69
2022/09/21 13:46:53;;;;;;;;;;;;;;;;;;5029658;28;20874;-70
2022/09/21 13:49:20;;;;;;;;;;;;;;;;;;5030192;28;20363;-69
2022/09/21 13:51:45;;;;;;;;;;;;;;;;;;5029731;28;20142;-67
2022/09/21 13:54:11;;;;;;;;;;;;;;;;;;5029509;28;20302;-68
2022/09/21 13:56:37;;;;;;;;;;;;;;;;;;5028944;28;19937;-67
2022/09/21 13:59:03;;;;;;;;;;;;;;;;;;5030163;28;20381;-68
2022/09/21 14:01:30;;;;;;;;;;;;;;;;;;5029886;28;19909;-68
2022/09/21 14:03:56;;;;;;;;;;;;;;;;;;5029620;28;20011;-68
2022/09/21 14:06:22;;;;;;;;;;;;;;;;;;5029322;28;19951;-68
2022/09/21 14:08:48;;;;;;;;;;;;;;;;;;5029638;28;19909;-68
2022/09/21 14:11:14;;;;;;;;;;;;;;;;;;5029122;28;20374;-69
2022/09/21 14:13:40;;;;;;;;;;;;;;;;;;5029845;28;19947;-67
2022/09/21 14:16:06;;;;;;;;;;;;;;;;;;5029403;28;19948;-69
2022/09/21 14:18:32;;;;;;;;;;;;;;;;;;5029396;28;19955;-69
2022/09/21 14:20:58;;;;;;;;;;;;;;;;;;5029625;28;19909;-67
2022/09/21 14:23:24;;;;;;;;;;;;;;;;;;5028551;28;20262;-68
2022/09/21 14:25:50;;;;;;;;;;;;;;;;;;5029188;28;20203;-69
2022/09/21 14:28:17;;;;;;;;;;;;;;;;;;5029220;28;19905;-69
2022/09/21 14:30:43;;;;;;;;;;;;;;;;;;5024042;28;19999;-70
2022/09/21 14:33:08;;;;;;;;;;;;;;;;;;5031804;28;20568;-68
2022/09/21 14:35:34;;;;;;;;;;;;;;;;;;5033070;28;19916;-68
2022/09/21 14:38:00;;;;;;;;;;;;;;;;;;5032895;28;20281;-68
2022/09/21 14:40:27;;;;;;;;;;;;;;;;;;5032506;28;20294;-68
2022/09/21 14:42:54;;;;;;;;;;;;;;;;;;5032401;28;19909;-70
2022/09/21 14:45:20;;;;;;;;;;;;;;;;;;5032689;28;20259;-69
2022/09/21 14:47:46;;;;;;;;;;;;;;;;;;5032733;28;19909;-68
2022/09/21 14:50:12;;;;;;;;;;;;;;;;;;5032252;28;20257;-69
2022/09/21 14:52:38;;;;;;;;;;;;;;;;;;5030534;28;20367;-69
2022/09/21 14:55:04;;;;;;;;;;;;;;;;;;5032088;28;20835;-70
2022/09/21 14:57:34;;;;;;;;;;;;;;;;;;5031776;28;20247;-69
2022/09/21 15:00:00;;;;;;;;;;;;;;;;;;5032532;28;20919;-69
2022/09/21 15:02:25;;;;;;;;;;;;;;;;;;5032505;28;20142;-68
2022/09/21 15:04:51;;;;;;;;;;;;;;;;;;5032576;28;20388;-68
2022/09/21 15:12:47;;;;;;;;;;;;;;;;;;5032093;28;20297;-68
2022/09/21 15:15:13;;;;;;;;;;;;;;;;;;5031986;28;20270;-69
2022/09/21 15:17:40;;;;;;;;;;;;;;;;;;5032517;28;20382;-67
2022/09/21 15:20:06;;;;;;;;;;;;;;;;;;5032084;28;20113;-66
2022/09/21 15:22:32;;;;;;;;;;;;;;;;;;5031415;28;20323;-69
2022/09/21 15:24:58;;;;;;;;;;;;;;;;;;5031814;28;20741;-68
2022/09/21 15:27:24;;;;;;;;;;;;;;;;;;5032242;28;20813;-69
2022/09/21 15:29:50;;;;;;;;;;;;;;;;;;5025464;28;20355;-68
2022/09/21 15:32:15;;;;;;;;;;;;;;;;;;5031255;28;20367;-69
2022/09/21 15:34:41;;;;;;;;;;;;;;;;;;5031324;28;20830;-67
2022/09/21 15:37:07;;;;;;;;;;;;;;;;;;5031055;28;20399;-69
2022/09/21 15:39:33;;;;;;;;;;;;;;;;;;5031750;28;20366;-68
2022/09/21 15:42:00;;;;;;;;;;;;;;;;;;5031800;28;20155;-71
2022/09/21 15:44:25;;;;;;;;;;;;;;;;;;5031582;28;20318;-69
2022/09/21 15:46:52;;;;;;;;;;;;;;;;;;5032013;28;20378;-71
2022/09/21 15:49:20;;;;;;;;;;;;;;;;;;5031738;28;20112;-70
2022/09/21 15:51:47;;;;;;;;;;;;;;;;;;5030702;28;20257;-71
2022/09/21 15:54:13;;;;;;;;;;;;;;;;;;5058178;28;20432;-70
2022/09/21 15:56:40;;;;;;;;;;;;;;;;;;5030936;28;20879;-68
2022/09/21 15:59:08;;;;;;;;;;;;;;;;;;5030856;28;20206;-69
2022/09/21 16:01:35;;;;;;;;;;;;;;;;;;5028463;28;20202;-68
2022/09/21 16:04:01;;;;;;;;;;;;;;;;;;5031311;28;20837;-70
2022/09/21 16:06:27;;;;;;;;;;;;;;;;;;5030046;28;20389;-71
2022/09/21 16:08:53;;;;;;;;;;;;;;;;;;5031677;28;20367;-70
2022/09/21 16:11:22;;;;;;;;;;;;;;;;;;5030831;28;20331;-71
2022/09/21 16:16:43;;;;;;;;;;;;;;;;;;4983905;28;20258;-71
2022/09/21 16:19:09;;;;;;;;;;;;;;;;;;4988971;28;20371;-71
2022/09/21 16:21:36;;;;;;;;;;;;;;;;;;4989624;28;20388;-70
2022/09/21 16:24:02;;;;;;;;;;;;;;;;;;4982858;28;20410;-72
2022/09/21 16:26:28;;;;;;;;;;;;;;;;;;4988054;28;20150;-72
2022/09/21 16:28:54;;;;;;;;;;;;;;;;;;4989394;28;19967;-71
2022/09/21 16:31:21;;;;;;;;;;;;;;;;;;4989277;28;20285;-72
2022/09/21 16:33:47;;;;;;;;;;;;;;;;;;4988509;28;20882;-69
2022/09/21 16:36:13;;;;;;;;;;;;;;;;;;4988549;28;21144;-71
2022/09/21 16:38:39;;;;;;;;;;;;;;;;;;4989096;28;20387;-71
2022/09/21 16:41:05;;;;;;;;;;;;;;;;;;4988892;28;20525;-68
2022/09/21 16:43:33;;;;;;;;;;;;;;;;;;4988839;28;20459;-71
2022/09/21 16:45:59;;;;;;;;;;;;;;;;;;4988855;28;20892;-70
2022/09/21 16:48:25;;;;;;;;;;;;;;;;;;4988414;28;20403;-71